Time;durP1;ratioP1;P1;durP2;ratioP2;P2;SDS_P1;SDS_P2;PMS_P1;PMS_P2;Temp;Humidity;BMP_temperature;BMP_pressure;BME280_temperature;BME280_humidity;BME280_pressure;Samples;Min_cycle;Max_cycle;Signal;HPM_P1;HPM_P2
2024/02/28 00:00:56;;;;;;;0.60;0.60;;;;;;;3.77;100.00;99611.34;5039211;28;20095;-59
2024/02/28 00:03:23;;;;;;;0.52;0.52;;;;;;;3.82;100.00;99611.63;5028948;28;20093;-59
2024/02/28 00:05:50;;;;;;;0.50;0.50;;;;;;;3.85;100.00;99609.41;5034865;28;20107;-59
2024/02/28 00:08:19;;;;;;;0.50;0.50;;;;;;;3.76;100.00;99617.69;5024765;28;20040;-59
2024/02/28 00:10:47;;;;;;;0.60;0.60;;;;;;;3.82;100.00;99608.97;5039365;28;20033;-59
2024/02/28 00:13:15;;;;;;;0.50;0.50;;;;;;;3.70;100.00;99615.81;5036676;28;20160;-59
2024/02/28 00:15:42;;;;;;;0.40;0.40;;;;;;;3.79;100.00;99614.66;5038062;28;20045;-59
2024/02/28 00:18:10;;;;;;;0.45;0.45;;;;;;;3.77;100.00;99617.50;5030573;28;20049;-59
2024/02/28 00:20:37;;;;;;;0.50;0.50;;;;;;;3.94;100.00;99620.72;5039633;28;20045;-59
2024/02/28 00:23:04;;;;;;;0.45;0.45;;;;;;;3.77;100.00;99614.00;5034110;28;20041;-59
2024/02/28 00:25:31;;;;;;;0.50;0.50;;;;;;;3.73;100.00;99612.78;5030618;28;20045;-59
2024/02/28 00:27:59;;;;;;;0.70;0.70;;;;;;;3.85;100.00;99614.72;5033656;28;20044;-60
2024/02/28 00:30:28;;;;;;;0.50;0.50;;;;;;;3.91;100.00;99613.13;5038442;28;20112;-60
2024/02/28 00:32:55;;;;;;;0.43;0.43;;;;;;;3.94;100.00;99618.06;5032285;28;20105;-59
2024/02/28 00:35:22;;;;;;;0.43;0.43;;;;;;;3.98;100.00;99618.50;5033953;28;20056;-59
2024/02/28 00:37:49;;;;;;;0.40;0.40;;;;;;;3.80;100.00;99613.66;5027886;28;20052;-59
2024/02/28 00:40:16;;;;;;;0.40;0.40;;;;;;;3.85;100.00;99613.91;5037645;28;20432;-59
2024/02/28 00:42:43;;;;;;;0.50;0.50;;;;;;;3.97;100.00;99609.75;5037764;28;20724;-59
2024/02/28 00:45:11;;;;;;;0.60;0.60;;;;;;;3.77;100.00;99608.72;5050438;28;20041;-59
2024/02/28 00:47:40;;;;;;;0.40;0.40;;;;;;;3.90;100.00;99614.16;5035739;28;20240;-59
2024/02/28 00:50:07;;;;;;;0.40;0.40;;;;;;;3.96;100.00;99621.34;5032556;28;20517;-57
2024/02/28 00:52:34;;;;;;;0.50;0.50;;;;;;;3.93;100.00;99620.91;5031778;28;20070;-59
2024/02/28 00:55:01;;;;;;;0.50;0.50;;;;;;;3.71;100.00;99617.44;5034724;28;20148;-59
2024/02/28 00:57:28;;;;;;;0.40;0.40;;;;;;;3.83;100.00;99615.94;5034152;28;20118;-59
2024/02/28 00:59:55;;;;;;;0.43;0.43;;;;;;;3.62;100.00;99617.56;5035663;28;20045;-59
2024/02/28 01:02:23;;;;;;;0.60;0.60;;;;;;;3.52;100.00;99619.69;5051298;28;20051;-59
2024/02/28 01:04:50;;;;;;;0.50;0.50;;;;;;;3.68;100.00;99613.31;5038609;28;20128;-59
2024/02/28 01:07:17;;;;;;;0.50;0.50;;;;;;;3.58;100.00;99624.22;5043308;28;20495;-59
2024/02/28 01:09:45;;;;;;;0.45;0.45;;;;;;;3.55;100.00;99621.16;5030458;28;20627;-59
2024/02/28 01:12:12;;;;;;;0.60;0.60;;;;;;;3.62;100.00;99630.81;5029108;28;20056;-59
2024/02/28 01:14:39;;;;;;;0.40;0.40;;;;;;;3.53;100.00;99631.94;5032011;28;20828;-59
2024/02/28 01:17:06;;;;;;;0.60;0.60;;;;;;;3.61;100.00;99629.16;5028643;28;20042;-59
2024/02/28 01:19:34;;;;;;;0.40;0.40;;;;;;;3.49;100.00;99633.28;5032579;28;20049;-59
2024/02/28 01:22:00;;;;;;;0.45;0.45;;;;;;;3.46;100.00;99636.31;5032236;28;20036;-59
2024/02/28 01:24:27;;;;;;;0.40;0.40;;;;;;;3.50;100.00;99637.59;5036891;28;20041;-59
2024/02/28 01:26:54;;;;;;;0.50;0.50;;;;;;;3.49;100.00;99635.13;5034154;28;20077;-59
2024/02/28 01:29:22;;;;;;;0.50;0.50;;;;;;;3.34;100.00;99632.50;5028250;28;20037;-59
2024/02/28 01:31:49;;;;;;;0.40;0.40;;;;;;;3.34;100.00;99635.16;5038335;28;20081;-59
2024/02/28 01:34:15;;;;;;;0.60;0.60;;;;;;;3.46;100.00;99626.53;5027877;28;20079;-59
2024/02/28 01:36:44;;;;;;;0.50;0.50;;;;;;;3.33;100.00;99630.88;5028645;28;20060;-59
2024/02/28 01:39:11;;;;;;;0.50;0.50;;;;;;;3.35;100.00;99634.97;5030519;28;20046;-59
2024/02/28 01:41:38;;;;;;;0.50;0.50;;;;;;;3.30;100.00;99633.91;5034682;28;20072;-59
2024/02/28 01:44:05;;;;;;;0.52;0.52;;;;;;;3.38;100.00;99636.44;5025758;28;20670;-59
2024/02/28 01:46:32;;;;;;;0.40;0.40;;;;;;;3.32;100.00;99637.16;5035064;28;20047;-59
2024/02/28 01:48:59;;;;;;;0.40;0.40;;;;;;;3.31;100.00;99633.69;5034735;28;20151;-59
2024/02/28 01:51:27;;;;;;;0.40;0.40;;;;;;;3.21;100.00;99634.00;5035444;28;20041;-59
2024/02/28 01:53:56;;;;;;;0.57;0.57;;;;;;;3.17;100.00;99631.88;5034689;28;20049;-59
2024/02/28 01:56:25;;;;;;;0.50;0.50;;;;;;;3.29;100.00;99641.00;5038587;28;20129;-59
2024/02/28 01:58:52;;;;;;;0.50;0.50;;;;;;;3.34;100.00;99648.41;5032969;28;20041;-59
2024/02/28 02:01:19;;;;;;;0.40;0.40;;;;;;;3.53;100.00;99647.81;5037274;28;20137;-59
2024/02/28 02:03:51;;;;;;;0.50;0.50;;;;;;;3.21;100.00;99649.88;5031047;28;20046;-59
2024/02/28 02:06:19;;;;;;;0.50;0.50;;;;;;;3.29;100.00;99642.84;5030703;28;20095;-60
2024/02/28 02:08:46;;;;;;;0.55;0.55;;;;;;;3.12;100.00;99640.41;5033967;28;20049;-59
2024/02/28 02:11:14;;;;;;;0.50;0.50;;;;;;;3.21;100.00;99635.81;5040895;28;20063;-59
2024/02/28 02:13:49;;;;;;;0.60;0.60;;;;;;;3.34;100.00;99638.63;5034994;28;20091;-59
2024/02/28 02:16:16;;;;;;;0.50;0.50;;;;;;;3.28;100.00;99638.56;5035579;28;20045;-59
2024/02/28 02:18:43;;;;;;;0.57;0.57;;;;;;;3.45;100.00;99634.69;5032270;28;20118;-59
2024/02/28 02:21:10;;;;;;;0.40;0.40;;;;;;;3.43;100.00;99642.00;5036548;28;20120;-59
2024/02/28 02:23:41;;;;;;;0.40;0.40;;;;;;;3.33;100.00;99637.00;5030849;28;20040;-59
2024/02/28 02:26:08;;;;;;;0.40;0.40;;;;;;;3.29;100.00;99640.19;5037570;28;20051;-59
2024/02/28 02:28:35;;;;;;;0.50;0.50;;;;;;;3.14;100.00;99640.22;5030085;28;20049;-59
2024/02/28 02:31:02;;;;;;;0.50;0.50;;;;;;;3.13;100.00;99647.34;5037963;28;20397;-59
2024/02/28 02:33:29;;;;;;;0.50;0.50;;;;;;;3.15;100.00;99634.72;5025316;28;20053;-59
2024/02/28 02:35:56;;;;;;;0.57;0.57;;;;;;;3.27;100.00;99647.50;5027919;28;20057;-59
2024/02/28 02:38:24;;;;;;;0.50;0.50;;;;;;;3.26;100.00;99646.69;5028136;28;20440;-59
2024/02/28 02:40:52;;;;;;;0.50;0.50;;;;;;;3.14;100.00;99648.97;5037271;28;20041;-59
2024/02/28 02:43:20;;;;;;;0.60;0.60;;;;;;;3.17;100.00;99648.63;5026482;28;20044;-59
2024/02/28 02:45:47;;;;;;;0.50;0.50;;;;;;;3.09;100.00;99639.94;5033087;28;20422;-59
2024/02/28 02:48:14;;;;;;;0.50;0.50;;;;;;;3.19;100.00;99641.28;5030939;28;20045;-59
2024/02/28 02:50:41;;;;;;;0.40;0.40;;;;;;;3.11;100.00;99644.03;5032199;28;20046;-59
2024/02/28 02:53:10;;;;;;;0.57;0.57;;;;;;;3.21;100.00;99644.59;5028543;28;20053;-59
2024/02/28 02:55:37;;;;;;;0.40;0.40;;;;;;;3.16;100.00;99646.97;5029754;28;20434;-59
2024/02/28 02:58:05;;;;;;;0.60;0.60;;;;;;;3.13;100.00;99644.69;5029370;28;20045;-58
2024/02/28 03:00:32;;;;;;;0.45;0.45;;;;;;;3.13;100.00;99636.75;5024777;28;20128;-58
2024/02/28 03:02:59;;;;;;;0.50;0.50;;;;;;;2.92;100.00;99642.78;5027860;28;20148;-58
2024/02/28 03:05:26;;;;;;;0.57;0.57;;;;;;;3.08;100.00;99635.66;5032545;28;20075;-58
2024/02/28 03:07:53;;;;;;;0.50;0.50;;;;;;;3.00;100.00;99652.47;5024380;28;20479;-59
2024/02/28 03:10:21;;;;;;;0.47;0.47;;;;;;;3.00;100.00;99653.28;5033777;28;20651;-58
2024/02/28 03:12:48;;;;;;;0.60;0.60;;;;;;;3.06;100.00;99645.59;5027256;28;20216;-58
2024/02/28 03:15:17;;;;;;;0.50;0.50;;;;;;;3.05;100.00;99650.09;5030873;28;20605;-59
2024/02/28 03:17:44;;;;;;;0.60;0.60;;;;;;;2.94;100.00;99650.53;5035702;28;20132;-58
2024/02/28 03:20:13;;;;;;;0.60;0.60;;;;;;;3.07;100.00;99650.72;5036995;28;20128;-59
2024/02/28 03:22:40;;;;;;;0.47;0.47;;;;;;;3.10;100.00;99647.72;5032420;28;20420;-58
2024/02/28 03:25:08;;;;;;;0.40;0.40;;;;;;;3.20;100.00;99652.72;5031055;28;20037;-58
2024/02/28 03:27:35;;;;;;;0.50;0.50;;;;;;;3.22;100.00;99653.34;5028950;28;21424;-58
2024/02/28 03:30:03;;;;;;;0.40;0.40;;;;;;;3.21;100.00;99652.53;5037021;28;20064;-58
2024/02/28 03:32:31;;;;;;;0.60;0.60;;;;;;;3.28;100.00;99665.88;5036334;28;20052;-59
2024/02/28 03:34:58;;;;;;;0.52;0.52;;;;;;;3.42;100.00;99664.19;5034171;28;20057;-59
2024/02/28 03:37:26;;;;;;;0.55;0.55;;;;;;;3.38;100.00;99658.44;5040151;28;20047;-59
2024/02/28 03:39:53;;;;;;;0.50;0.50;;;;;;;3.41;100.00;99660.72;5038602;28;20049;-59
2024/02/28 03:42:20;;;;;;;0.40;0.40;;;;;;;3.24;100.00;99654.84;5027242;28;20041;-58
2024/02/28 03:44:48;;;;;;;0.50;0.50;;;;;;;3.19;100.00;99657.19;5039909;28;20115;-58
2024/02/28 03:47:15;;;;;;;0.40;0.40;;;;;;;3.29;100.00;99662.19;5027659;28;20052;-58
2024/02/28 03:49:43;;;;;;;0.57;0.57;;;;;;;3.18;100.00;99665.34;5041659;28;20170;-59
2024/02/28 03:52:10;;;;;;;0.40;0.40;;;;;;;3.34;100.00;99674.91;5029627;28;20041;-59
2024/02/28 03:54:37;;;;;;;0.45;0.45;;;;;;;3.31;100.00;99675.28;5034808;28;20049;-59
2024/02/28 03:57:04;;;;;;;0.40;0.40;;;;;;;3.34;100.00;99669.59;5035274;28;20262;-59
2024/02/28 03:59:31;;;;;;;0.50;0.50;;;;;;;3.32;100.00;99671.59;5042183;28;20128;-58
2024/02/28 04:01:58;;;;;;;0.50;0.50;;;;;;;3.29;100.00;99678.09;5034917;28;20047;-59
2024/02/28 04:04:25;;;;;;;0.52;0.52;;;;;;;3.27;100.00;99680.13;5032549;28;20124;-59
2024/02/28 04:06:54;;;;;;;0.50;0.50;;;;;;;3.40;100.00;99682.94;5031366;28;20858;-58
2024/02/28 04:09:21;;;;;;;0.40;0.40;;;;;;;3.39;100.00;99683.13;5033013;28;20071;-59
2024/02/28 04:11:48;;;;;;;0.60;0.60;;;;;;;3.36;100.00;99689.59;5041361;28;20037;-58
2024/02/28 04:14:15;;;;;;;0.43;0.43;;;;;;;3.27;100.00;99693.38;5038955;28;20053;-58
2024/02/28 04:16:43;;;;;;;0.45;0.45;;;;;;;3.27;100.00;99695.19;5031615;28;20041;-58
2024/02/28 04:19:10;;;;;;;0.50;0.50;;;;;;;3.30;100.00;99694.84;5033356;28;20049;-58
2024/02/28 04:21:38;;;;;;;0.50;0.50;;;;;;;3.37;100.00;99704.53;5042488;28;20041;-58
2024/02/28 04:24:07;;;;;;;0.40;0.40;;;;;;;3.10;100.00;99716.56;5033943;28;20042;-58
2024/02/28 04:26:34;;;;;;;0.40;0.40;;;;;;;3.19;100.00;99710.16;5038602;28;20056;-58
2024/02/28 04:29:02;;;;;;;0.43;0.43;;;;;;;3.22;100.00;99715.13;5034933;28;20099;-59
2024/02/28 04:31:29;;;;;;;0.50;0.50;;;;;;;3.20;100.00;99711.81;5030965;28;20040;-58
2024/02/28 04:33:57;;;;;;;0.50;0.50;;;;;;;3.08;100.00;99707.97;5030923;28;20038;-58
2024/02/28 04:36:23;;;;;;;0.40;0.40;;;;;;;3.22;100.00;99709.81;5034625;28;20052;-59
2024/02/28 04:38:51;;;;;;;0.60;0.60;;;;;;;2.83;100.00;99719.84;5037783;28;20055;-58
2024/02/28 04:41:19;;;;;;;0.50;0.50;;;;;;;3.08;100.00;99718.56;5034752;28;20045;-59
2024/02/28 04:43:46;;;;;;;0.40;0.40;;;;;;;3.12;100.00;99711.94;5031843;28;20042;-59
2024/02/28 04:46:13;;;;;;;0.50;0.50;;;;;;;3.17;100.00;99712.19;5027189;28;20500;-58
2024/02/28 04:48:40;;;;;;;0.45;0.45;;;;;;;3.09;100.00;99722.84;5032792;28;20048;-58
2024/02/28 04:51:07;;;;;;;0.50;0.50;;;;;;;3.18;100.00;99728.91;5040791;28;20045;-58
2024/02/28 04:53:34;;;;;;;0.30;0.30;;;;;;;3.18;100.00;99724.44;5025666;28;20507;-58
2024/02/28 04:56:01;;;;;;;0.40;0.40;;;;;;;3.23;100.00;99726.53;5043724;28;20040;-59
2024/02/28 04:58:30;;;;;;;0.40;0.40;;;;;;;3.32;100.00;99737.84;5031264;28;20034;-59
2024/02/28 05:00:57;;;;;;;0.50;0.50;;;;;;;3.23;100.00;99731.84;5024356;28;20056;-59
2024/02/28 05:03:25;;;;;;;0.50;0.50;;;;;;;3.26;100.00;99728.81;5029705;28;20559;-57
2024/02/28 05:05:52;;;;;;;0.35;0.35;;;;;;;3.18;100.00;99735.03;5038987;28;20041;-58
2024/02/28 05:08:20;;;;;;;0.40;0.40;;;;;;;3.22;100.00;99725.72;5030177;28;20090;-58
2024/02/28 05:10:47;;;;;;;0.50;0.50;;;;;;;3.26;100.00;99738.59;5034887;28;20064;-59
2024/02/28 05:13:14;;;;;;;0.50;0.50;;;;;;;3.24;100.00;99729.00;5027857;28;21543;-58
2024/02/28 05:15:43;;;;;;;0.40;0.40;;;;;;;3.12;100.00;99734.91;5037425;28;20041;-58
2024/02/28 05:18:10;;;;;;;0.50;0.50;;;;;;;3.21;100.00;99733.84;5036136;28;20040;-58
2024/02/28 05:20:37;;;;;;;0.50;0.50;;;;;;;3.26;100.00;99741.25;5034606;28;20107;-58
2024/02/28 05:23:04;;;;;;;0.50;0.50;;;;;;;3.32;100.00;99745.78;5030624;28;20056;-58
2024/02/28 05:25:31;;;;;;;0.50;0.50;;;;;;;3.30;100.00;99747.81;5032166;28;20045;-58
2024/02/28 05:27:58;;;;;;;0.50;0.50;;;;;;;3.34;100.00;99751.75;5034482;28;20052;-58
2024/02/28 05:30:25;;;;;;;0.50;0.50;;;;;;;3.25;100.00;99756.31;5038036;28;20124;-58
2024/02/28 05:32:53;;;;;;;0.40;0.40;;;;;;;3.05;100.00;99763.97;5034267;28;20121;-58
2024/02/28 05:35:21;;;;;;;0.38;0.38;;;;;;;2.86;100.00;99772.41;5033021;28;20041;-58
2024/02/28 05:37:48;;;;;;;0.40;0.40;;;;;;;2.87;100.00;99774.06;5037336;28;20933;-59
2024/02/28 05:40:15;;;;;;;0.30;0.30;;;;;;;2.84;100.00;99763.81;5041862;28;20482;-58
2024/02/28 05:42:42;;;;;;;0.50;0.50;;;;;;;2.56;100.00;99759.09;5030351;28;20072;-58
2024/02/28 05:45:10;;;;;;;0.50;0.50;;;;;;;3.09;100.00;99759.94;5035585;28;20052;-58
2024/02/28 05:47:37;;;;;;;0.55;0.55;;;;;;;3.05;100.00;99768.44;5036064;28;20689;-58
2024/02/28 05:50:07;;;;;;;0.50;0.50;;;;;;;3.26;100.00;99773.03;5031247;28;20168;-58
2024/02/28 05:52:35;;;;;;;0.60;0.60;;;;;;;3.42;100.00;99778.13;5035034;28;20563;-59
2024/02/28 05:55:02;;;;;;;0.50;0.50;;;;;;;3.30;100.00;99771.69;5038343;28;20132;-59
2024/02/28 05:57:29;;;;;;;0.60;0.60;;;;;;;3.38;100.00;99785.66;5028881;28;20041;-59
2024/02/28 05:59:56;;;;;;;0.50;0.50;;;;;;;3.00;100.00;99795.47;5033701;28;20044;-59
2024/02/28 06:02:23;;;;;;;0.50;0.50;;;;;;;3.17;100.00;99786.38;5026775;28;20073;-59
2024/02/28 06:04:50;;;;;;;0.60;0.60;;;;;;;3.14;100.00;99786.72;5031126;28;20136;-59
2024/02/28 06:07:19;;;;;;;0.50;0.50;;;;;;;3.20;100.00;99780.69;5037877;28;20076;-59
2024/02/28 06:09:46;;;;;;;0.60;0.60;;;;;;;3.10;100.00;99769.53;5034466;28;20045;-59
2024/02/28 06:12:13;;;;;;;0.52;0.52;;;;;;;3.24;100.00;99782.00;5032997;28;20051;-58
2024/02/28 06:14:40;;;;;;;0.60;0.60;;;;;;;3.26;100.00;99788.94;5033145;28;20042;-59
2024/02/28 06:17:07;;;;;;;0.50;0.50;;;;;;;3.13;100.00;99785.06;5024791;28;20060;-59
2024/02/28 06:19:34;;;;;;;0.40;0.40;;;;;;;3.12;100.00;99794.03;5030858;28;20150;-59
2024/02/28 06:22:01;;;;;;;0.50;0.50;;;;;;;3.14;100.00;99799.94;5028956;28;20415;-59
2024/02/28 06:24:30;;;;;;;0.40;0.40;;;;;;;3.21;100.00;99792.94;5031001;28;20044;-59
2024/02/28 06:26:57;;;;;;;0.40;0.40;;;;;;;3.06;100.00;99789.44;5033802;28;20045;-59
2024/02/28 06:29:24;;;;;;;0.47;0.47;;;;;;;3.13;100.00;99803.63;5025267;28;20041;-59
2024/02/28 06:31:52;;;;;;;0.60;0.60;;;;;;;2.84;100.00;99811.47;5031977;28;20037;-59
2024/02/28 06:34:22;;;;;;;0.50;0.50;;;;;;;2.97;100.00;99819.63;5030530;28;20052;-59
2024/02/28 06:36:49;;;;;;;0.40;0.40;;;;;;;3.03;100.00;99825.06;5025570;28;20047;-58
2024/02/28 06:39:16;;;;;;;0.45;0.45;;;;;;;3.04;100.00;99823.22;5030962;28;20099;-59
2024/02/28 06:41:44;;;;;;;0.50;0.50;;;;;;;3.10;100.00;99819.06;5030338;28;20127;-59
2024/02/28 06:44:12;;;;;;;0.40;0.40;;;;;;;3.02;100.00;99825.22;5029992;28;20056;-58
2024/02/28 06:46:39;;;;;;;0.60;0.60;;;;;;;3.14;100.00;99828.28;5030648;28;20104;-58
2024/02/28 06:49:06;;;;;;;0.57;0.57;;;;;;;2.60;100.00;99826.56;5032562;28;20052;-58
2024/02/28 06:51:33;;;;;;;0.40;0.40;;;;;;;2.38;100.00;99834.28;5039848;28;20142;-58
2024/02/28 06:54:00;;;;;;;0.50;0.50;;;;;;;2.88;100.00;99831.31;5039517;28;20502;-60
2024/02/28 06:56:27;;;;;;;0.60;0.60;;;;;;;2.83;100.00;99836.31;5035421;28;20069;-59
2024/02/28 06:58:56;;;;;;;0.60;0.60;;;;;;;2.87;100.00;99842.88;5030855;28;20068;-60
2024/02/28 07:01:23;;;;;;;0.50;0.50;;;;;;;2.81;100.00;99833.84;5039900;28;20059;-59
2024/02/28 07:03:53;;;;;;;0.50;0.50;;;;;;;2.91;100.00;99831.78;5036086;28;20049;-59
2024/02/28 07:06:24;;;;;;;0.35;0.35;;;;;;;2.72;100.00;99833.09;5039625;28;21581;-58
2024/02/28 07:08:51;;;;;;;0.47;0.47;;;;;;;2.47;100.00;99831.59;5038967;28;20103;-58
2024/02/28 07:11:18;;;;;;;0.40;0.40;;;;;;;2.60;100.00;99842.44;5030005;28;20683;-58
2024/02/28 07:13:45;;;;;;;0.50;0.50;;;;;;;2.80;100.00;99843.63;5038106;28;20048;-59
2024/02/28 07:16:15;;;;;;;0.50;0.50;;;;;;;3.02;100.00;99846.41;5035776;28;20034;-60
2024/02/28 07:18:42;;;;;;;0.70;0.70;;;;;;;3.13;100.00;99842.53;5033077;28;20138;-58
2024/02/28 07:21:09;;;;;;;0.60;0.60;;;;;;;3.24;100.00;99850.03;5039864;28;20054;-59
2024/02/28 07:23:40;;;;;;;0.50;0.50;;;;;;;3.28;100.00;99846.03;5030535;28;20046;-58
2024/02/28 07:26:07;;;;;;;;;;;;;;;3.28;100.00;99851.31;5041479;28;20059;-59
2024/02/28 07:28:34;;;;;;;0.60;0.60;;;;;;;3.37;100.00;99847.59;5035596;28;20023;-58
2024/02/28 07:31:01;;;;;;;0.32;0.32;;;;;;;3.40;100.00;99854.38;5037605;28;20057;-60
2024/02/28 07:33:30;;;;;;;0.57;0.57;;;;;;;3.39;100.00;99853.53;5040048;28;20869;-60
2024/02/28 07:36:00;;;;;;;0.50;0.50;;;;;;;3.35;100.00;99852.25;5037154;28;20046;-59
2024/02/28 07:38:28;;;;;;;0.43;0.43;;;;;;;3.36;100.00;99853.88;5037311;28;20041;-59
2024/02/28 07:40:56;;;;;;;0.40;0.40;;;;;;;3.40;100.00;99864.97;5031610;28;20485;-60
2024/02/28 07:43:23;;;;;;;0.40;0.40;;;;;;;3.51;100.00;99861.06;5032913;28;20132;-58
2024/02/28 07:45:50;;;;;;;0.40;0.40;;;;;;;3.37;100.00;99867.97;5035475;28;20857;-58
2024/02/28 07:48:17;;;;;;;0.60;0.60;;;;;;;3.30;100.00;99872.34;5038920;28;20045;-58
2024/02/28 07:50:46;;;;;;;0.50;0.50;;;;;;;3.17;100.00;99876.44;5036498;28;20821;-60
2024/02/28 07:53:13;;;;;;;0.57;0.57;;;;;;;3.19;100.00;99870.94;5036014;28;20095;-58
2024/02/28 07:55:40;;;;;;;0.50;0.50;;;;;;;3.22;100.00;99871.41;5038642;28;20077;-58
2024/02/28 07:58:06;;;;;;;0.50;0.50;;;;;;;3.36;100.00;99879.56;5040962;28;20070;-58
2024/02/28 08:00:36;;;;;;;0.43;0.43;;;;;;;3.45;100.00;99875.84;5035490;28;20099;-60
2024/02/28 08:03:04;;;;;;;0.50;0.50;;;;;;;3.48;100.00;99878.13;5040203;28;20539;-59
2024/02/28 08:05:33;;;;;;;0.50;0.50;;;;;;;3.51;100.00;99877.78;5032798;28;20479;-60
2024/02/28 08:08:02;;;;;;;0.50;0.50;;;;;;;3.48;100.00;99882.63;5045070;28;20158;-59
2024/02/28 08:10:30;;;;;;;0.50;0.50;;;;;;;3.42;100.00;99885.00;5034112;28;20342;-59
2024/02/28 08:12:56;;;;;;;0.40;0.40;;;;;;;3.53;100.00;99891.66;5029159;28;20271;-59
2024/02/28 08:15:24;;;;;;;0.50;0.50;;;;;;;3.43;100.00;99893.75;5031021;28;20037;-58
2024/02/28 08:17:51;;;;;;;0.40;0.40;;;;;;;3.40;100.00;99894.94;5042455;28;20436;-58
2024/02/28 08:20:18;;;;;;;0.50;0.50;;;;;;;3.54;100.00;99908.38;5028485;28;20041;-59
2024/02/28 08:22:46;;;;;;;0.52;0.52;;;;;;;3.64;100.00;99915.09;5033549;28;20639;-59
2024/02/28 08:25:17;;;;;;;0.40;0.40;;;;;;;3.53;100.00;99907.56;5030282;28;20821;-58
2024/02/28 08:27:46;;;;;;;0.50;0.50;;;;;;;3.60;100.00;99905.84;5034766;28;20033;-60
2024/02/28 08:30:19;;;;;;;0.40;0.40;;;;;;;3.59;100.00;99904.19;5039169;28;20140;-59
2024/02/28 08:32:47;;;;;;;0.38;0.38;;;;;;;3.78;100.00;99910.81;5027918;28;20562;-58
2024/02/28 08:35:17;;;;;;;0.40;0.40;;;;;;;3.90;100.00;99900.59;5036909;28;20642;-60
2024/02/28 08:37:44;;;;;;;0.50;0.50;;;;;;;3.97;100.00;99914.75;5029067;28;20090;-59
2024/02/28 08:40:12;;;;;;;0.50;0.50;;;;;;;3.71;100.00;99912.53;5033948;28;20037;-58
2024/02/28 08:42:41;;;;;;;0.50;0.50;;;;;;;3.88;100.00;99910.53;5033363;28;20051;-59
2024/02/28 08:45:09;;;;;;;0.50;0.50;;;;;;;3.76;100.00;99910.16;5037415;28;20488;-60
2024/02/28 08:47:36;;;;;;;0.40;0.40;;;;;;;3.90;100.00;99911.19;5037142;28;20494;-58
2024/02/28 08:50:04;;;;;;;0.50;0.50;;;;;;;3.85;100.00;99916.22;5029014;28;20049;-59
2024/02/28 08:52:31;;;;;;;0.40;0.40;;;;;;;4.01;100.00;99918.69;5028427;28;20500;-59
2024/02/28 08:54:58;;;;;;;0.50;0.50;;;;;;;3.96;100.00;99918.41;5033358;28;20049;-59
2024/02/28 08:57:25;;;;;;;0.40;0.40;;;;;;;4.23;100.00;99918.78;5036640;28;20045;-59
2024/02/28 08:59:54;;;;;;;0.30;0.30;;;;;;;3.94;100.00;99912.44;5034557;28;20061;-59
2024/02/28 09:02:21;;;;;;;0.40;0.40;;;;;;;4.20;100.00;99914.66;5051600;28;20900;-58
2024/02/28 09:04:51;;;;;;;0.40;0.40;;;;;;;4.12;100.00;99917.41;5033615;28;20049;-58
2024/02/28 09:07:19;;;;;;;0.30;0.30;;;;;;;4.17;100.00;99924.81;5036420;28;20037;-60
2024/02/28 09:09:46;;;;;;;0.40;0.40;;;;;;;4.15;100.00;99934.78;5038261;28;20049;-58
2024/02/28 09:12:16;;;;;;;0.32;0.32;;;;;;;4.05;100.00;99927.94;5032287;28;20572;-59
2024/02/28 09:14:44;;;;;;;0.47;0.47;;;;;;;3.99;100.00;99936.59;5035742;28;20131;-58
2024/02/28 09:17:13;;;;;;;0.60;0.60;;;;;;;3.97;100.00;99935.97;5033657;28;20048;-58
2024/02/28 09:19:40;;;;;;;0.50;0.50;;;;;;;4.34;100.00;99936.88;5034163;28;20059;-58
2024/02/28 09:22:09;;;;;;;0.40;0.40;;;;;;;4.30;100.00;99938.25;5034669;28;20052;-57
2024/02/28 09:24:38;;;;;;;0.38;0.38;;;;;;;4.41;100.00;99932.47;5029743;28;20052;-59
2024/02/28 09:27:05;;;;;;;0.32;0.32;;;;;;;4.65;100.00;99943.81;5037170;28;20042;-59
2024/02/28 09:29:32;;;;;;;0.40;0.40;;;;;;;4.68;100.00;99943.44;5035011;28;20419;-58
2024/02/28 09:31:59;;;;;;;0.50;0.50;;;;;;;4.35;100.00;99943.03;5043400;28;20969;-58
2024/02/28 09:34:28;;;;;;;0.50;0.50;;;;;;;4.52;100.00;99944.47;5027956;28;20095;-58
2024/02/28 09:36:55;;;;;;;0.52;0.52;;;;;;;4.53;100.00;99938.97;5035249;28;20153;-58
2024/02/28 09:39:22;;;;;;;0.50;0.50;;;;;;;4.64;100.00;99942.13;5027361;28;20527;-59
2024/02/28 09:41:50;;;;;;;0.40;0.40;;;;;;;4.35;100.00;99951.81;5035633;28;20136;-59
2024/02/28 09:44:17;;;;;;;0.40;0.40;;;;;;;4.47;100.00;99945.03;5029728;28;20120;-58
2024/02/28 09:46:44;;;;;;;0.30;0.30;;;;;;;4.45;100.00;99944.38;5030471;28;20053;-59
2024/02/28 09:49:11;;;;;;;0.40;0.40;;;;;;;4.82;100.00;99941.72;5037192;28;20049;-59
2024/02/28 09:51:40;;;;;;;0.40;0.40;;;;;;;4.36;100.00;99950.78;5036296;28;20132;-58
2024/02/28 09:54:07;;;;;;;0.30;0.30;;;;;;;4.73;100.00;99949.00;5042524;28;20060;-59
2024/02/28 09:56:36;;;;;;;0.50;0.50;;;;;;;4.78;100.00;99954.56;5035156;28;20123;-59
2024/02/28 09:59:03;;;;;;;0.50;0.50;;;;;;;4.41;100.00;99956.38;5031780;28;20120;-59
2024/02/28 10:01:31;;;;;;;0.50;0.50;;;;;;;4.33;100.00;99961.78;5035942;28;20289;-58
2024/02/28 10:03:58;;;;;;;0.40;0.40;;;;;;;4.80;100.00;99970.34;5035277;28;20659;-58
2024/02/28 10:06:26;;;;;;;0.50;0.50;;;;;;;4.82;100.00;99965.63;5034070;28;20477;-57
2024/02/28 10:08:54;;;;;;;0.40;0.40;;;;;;;5.22;100.00;99974.88;5038802;28;20051;-59
2024/02/28 10:11:21;;;;;;;0.40;0.40;;;;;;;5.79;100.00;99975.75;5032351;28;20048;-58
2024/02/28 10:13:49;;;;;;;0.50;0.50;;;;;;;5.65;99.27;99982.81;5029905;28;20034;-59
2024/02/28 10:16:16;;;;;;;0.38;0.38;;;;;;;5.62;98.02;99983.22;5031775;28;20053;-59
2024/02/28 10:18:43;;;;;;;0.50;0.50;;;;;;;6.58;95.36;99978.13;5036801;28;20034;-60
2024/02/28 10:21:12;;;;;;;0.40;0.40;;;;;;;7.23;92.16;99977.72;5037040;28;20926;-58
2024/02/28 10:23:39;;;;;;;0.40;0.40;;;;;;;6.51;94.48;99979.94;5027995;28;20050;-59
2024/02/28 10:26:09;;;;;;;0.40;0.40;;;;;;;7.53;91.92;99976.34;5036019;28;20041;-58
2024/02/28 10:28:37;;;;;;;0.40;0.40;;;;;;;6.17;88.35;99980.78;5036429;28;20072;-59
2024/02/28 10:31:05;;;;;;;0.40;0.40;;;;;;;7.00;89.24;99984.25;5031924;28;20064;-59
2024/02/28 10:33:33;;;;;;;0.38;0.38;;;;;;;7.26;86.39;99988.00;5032246;28;20045;-59
2024/02/28 10:36:00;;;;;;;0.50;0.50;;;;;;;7.38;86.19;99981.03;5033563;28;20087;-59
2024/02/28 10:38:37;;;;;;;0.30;0.30;;;;;;;7.63;81.79;99983.13;5028474;28;20044;-59
2024/02/28 10:41:05;;;;;;;0.40;0.40;;;;;;;7.47;83.57;99974.50;5027609;28;20485;-58
2024/02/28 10:43:34;;;;;;;0.30;0.30;;;;;;;7.50;84.87;99976.75;5027902;28;20045;-58
2024/02/28 10:46:01;;;;;;;0.40;0.40;;;;;;;7.41;87.03;99974.47;5032814;28;20133;-59
2024/02/28 10:48:28;;;;;;;0.28;0.28;;;;;;;6.97;86.46;99981.16;5033970;28;20152;-59
2024/02/28 10:50:55;;;;;;;0.40;0.40;;;;;;;7.07;86.14;99969.09;5029671;28;20190;-60
2024/02/28 10:53:24;;;;;;;0.30;0.30;;;;;;;7.16;89.25;99971.56;5031449;28;20064;-59
2024/02/28 10:55:52;;;;;;;0.40;0.40;;;;;;;8.34;81.97;99969.91;5026909;28;20053;-59
2024/02/28 10:58:19;;;;;;;0.30;0.30;;;;;;;6.25;92.24;99968.13;5039114;28;20538;-58
2024/02/28 11:00:49;;;;;;;0.30;0.30;;;;;;;4.91;97.70;99954.72;5032841;28;20053;-58
2024/02/28 11:03:17;;;;;;;0.40;0.40;;;;;;;6.98;93.00;99948.97;5029923;28;20057;-58
2024/02/28 11:05:46;;;;;;;0.40;0.40;;;;;;;6.62;92.07;99958.06;5031708;28;20102;-59
2024/02/28 11:08:20;;;;;;;0.35;0.35;;;;;;;6.96;88.03;99945.69;5032971;28;20115;-58
2024/02/28 11:10:48;;;;;;;0.40;0.40;;;;;;;7.63;82.88;99946.59;5034509;28;20492;-58
2024/02/28 11:13:22;;;;;;;0.30;0.30;;;;;;;6.17;91.33;99947.00;5031024;28;20037;-60
2024/02/28 11:15:51;;;;;;;0.50;0.50;;;;;;;6.34;92.45;99938.69;5036915;28;20133;-58
2024/02/28 11:18:18;;;;;;;0.40;0.40;;;;;;;7.11;89.57;99946.34;5030972;28;20041;-59
2024/02/28 11:20:47;;;;;;;0.40;0.40;;;;;;;8.08;85.32;99943.25;5029916;28;20065;-59
2024/02/28 11:23:15;;;;;;;0.40;0.40;;;;;;;7.67;80.00;99933.66;5028309;28;20069;-58
2024/02/28 11:25:42;;;;;;;0.30;0.30;;;;;;;8.09;80.81;99926.22;5029733;28;20099;-59
2024/02/28 11:28:09;;;;;;;0.30;0.30;;;;;;;7.38;83.18;99932.22;5034590;28;20041;-57
2024/02/28 11:30:36;;;;;;;0.40;0.40;;;;;;;6.45;89.42;99933.63;5033360;28;20162;-59
2024/02/28 11:33:08;;;;;;;0.40;0.40;;;;;;;6.09;92.37;99931.19;5034164;28;20095;-58
2024/02/28 11:35:35;;;;;;;0.43;0.43;;;;;;;5.87;98.56;99926.94;5034019;28;20053;-57